To NAV CANADA Home Page Login to a new session Search on AWWS site Feedback and Comments Disclaimer Vers la page française équivalente Tips FAQ What's new on the site To the Forecasts and Observations / NOTAM section To "File a Flight Plan" website Publications and other links Update of the User's profile FIC Telephone Numbers My Weather Data Folder Route Weather Data Regional Weather Data Local Weather Data To the Forecasts and Observations / NOTAM section
Request Generated 05/25/2017 at 01:10:55 UTC . Weather information available at that time is displayed.

METAR/TAF

TALOYOAK/NU    

METAR CYYH 250100Z 08013KT 15SM -RA FEW011 SCT015 BKN020 BKN040
OVC050 01/M00 A2978 RMK SF1SC3SC2SC2SC1 SF TR -RA INTMT SLP087=
METAR CYYH 250000Z 08015KT 15SM -RA FEW010 SCT015 BKN020 OVC050
01/M00 A2976 RMK ST1SC3SC3SC1 -RA INTMT SLP082=
SPECI CYYH 242341Z 08013G20KT 15SM -RA FEW010 SCT015 OVC020 OVC050
01/M00 A2975 RMK ST1SC3SC4SC1 SC TR -RA INTMT CIG RAG SLP080=
METAR CYYH 242300Z 09015G21KT 15SM SCT015 BKN022 OVC050 02/M01 A2975
RMK SC3SC4SC1 CIG RAG SLP078=

TAF CYYH 242338Z 2500/2512 09015KT P6SM SCT015 BKN030 TEMPO 2500/2512
P6SM -RA BKN015 OVC030
RMK NXT FCST BY 250600Z=
Your time UTC time
Weather data provided by Environment Canada and NAV CANADA